createdAt,value
2018-08-11T00:01:51.756Z,1.10
2018-08-11T00:04:19.127Z,1.20
2018-08-11T00:06:46.487Z,1.00
2018-08-11T00:09:13.822Z,1.53
2018-08-11T00:11:41.487Z,1.30
2018-08-11T00:14:09.062Z,2.20
2018-08-11T00:16:36.419Z,1.20
2018-08-11T00:19:03.859Z,1.30
2018-08-11T00:21:31.395Z,1.10
2018-08-11T00:23:58.778Z,1.20
2018-08-11T00:26:26.128Z,1.53
2018-08-11T00:28:53.800Z,1.53
2018-08-11T00:31:21.123Z,1.80
2018-08-11T00:33:48.485Z,1.07
2018-08-11T00:36:15.869Z,1.30
2018-08-11T00:38:43.207Z,1.57
2018-08-11T00:41:10.571Z,1.50
2018-08-11T00:43:38.131Z,1.50
2018-08-11T00:46:05.619Z,1.43
2018-08-11T00:48:32.970Z,1.93
2018-08-11T00:51:00.327Z,1.30
2018-08-11T00:53:27.630Z,1.27
2018-08-11T00:55:54.939Z,1.40
2018-08-11T00:58:22.261Z,1.50
2018-08-11T01:00:49.632Z,1.70
2018-08-11T01:03:23.810Z,2.07
2018-08-11T01:05:51.163Z,1.60
2018-08-11T01:08:18.455Z,1.80
2018-08-11T01:10:45.824Z,1.63
2018-08-11T01:13:13.360Z,1.70
2018-08-11T01:15:40.784Z,1.57
2018-08-11T01:18:08.139Z,1.60
2018-08-11T01:20:35.727Z,1.60
2018-08-11T01:23:03.083Z,1.60
2018-08-11T01:25:30.484Z,1.70
2018-08-11T01:27:57.838Z,1.60
2018-08-11T01:30:25.231Z,1.67
2018-08-11T01:32:52.632Z,1.93
2018-08-11T01:35:19.935Z,2.33
2018-08-11T01:37:47.340Z,2.87
2018-08-11T01:40:15.395Z,4.00
2018-08-11T01:42:43.958Z,4.03
2018-08-11T01:45:12.142Z,4.93
2018-08-11T01:47:39.910Z,6.07
2018-08-11T01:50:08.684Z,4.93
2018-08-11T01:52:36.145Z,5.10
2018-08-11T01:55:04.064Z,4.80
2018-08-11T01:57:31.367Z,4.10
2018-08-11T01:59:58.709Z,4.37
2018-08-11T02:02:26.386Z,3.70
2018-08-11T02:04:53.731Z,3.50
2018-08-11T02:07:21.063Z,4.13
2018-08-11T02:09:48.492Z,3.70
2018-08-11T02:12:15.934Z,3.67
2018-08-11T02:14:43.350Z,3.50
2018-08-11T02:17:10.920Z,3.23
2018-08-11T02:19:38.295Z,3.50
2018-08-11T02:22:05.864Z,3.63
2018-08-11T02:24:33.598Z,5.00
2018-08-11T02:27:00.931Z,3.80
2018-08-11T02:29:28.287Z,3.43
2018-08-11T02:31:55.870Z,7.43
2018-08-11T02:34:23.262Z,3.97
2018-08-11T02:36:50.526Z,4.20
2018-08-11T02:39:17.854Z,3.83
2018-08-11T02:41:45.178Z,3.60
2018-08-11T02:44:12.539Z,3.50
2018-08-11T02:46:39.950Z,3.93
2018-08-11T02:49:08.169Z,4.00
2018-08-11T02:51:35.655Z,3.47
2018-08-11T02:54:03.286Z,4.77
2018-08-11T02:56:31.065Z,4.97
2018-08-11T02:58:58.781Z,3.90
2018-08-11T03:01:26.103Z,4.10
2018-08-11T03:03:53.426Z,3.70
2018-08-11T03:06:20.768Z,3.63
2018-08-11T03:08:48.116Z,3.83
2018-08-11T03:11:15.470Z,3.53
2018-08-11T03:13:42.939Z,4.63
2018-08-11T03:16:10.302Z,3.60
2018-08-11T03:18:37.626Z,3.90
2018-08-11T03:21:04.952Z,5.60
2018-08-11T03:23:32.301Z,3.97
2018-08-11T03:25:59.629Z,4.27
2018-08-11T03:28:26.978Z,3.40
2018-08-11T03:30:54.295Z,3.60
2018-08-11T03:33:21.892Z,4.50
2018-08-11T03:35:49.226Z,4.00
2018-08-11T03:38:16.544Z,4.03
2018-08-11T03:40:43.895Z,4.23
2018-08-11T03:43:11.224Z,3.90
2018-08-11T03:45:38.543Z,3.63
2018-08-11T03:48:05.875Z,5.80
2018-08-11T03:50:33.185Z,4.43
2018-08-11T03:53:00.540Z,4.30
2018-08-11T03:55:28.121Z,4.10
2018-08-11T03:57:55.452Z,3.87
2018-08-11T04:00:22.821Z,5.33
2018-08-11T04:02:50.113Z,4.50
2018-08-11T04:05:17.415Z,4.43
2018-08-11T04:07:44.763Z,4.33
2018-08-11T04:10:12.074Z,5.00
2018-08-11T04:12:39.419Z,4.93
2018-08-11T04:15:07.011Z,4.70
2018-08-11T04:17:37.225Z,4.83
2018-08-11T04:20:04.788Z,5.30
2018-08-11T04:22:32.129Z,5.90
2018-08-11T04:24:59.476Z,5.47
2018-08-11T04:27:26.956Z,4.90
2018-08-11T04:29:54.308Z,7.47
2018-08-11T04:32:21.613Z,5.07
2018-08-11T04:34:48.926Z,5.70
2018-08-11T04:37:16.224Z,5.47
2018-08-11T04:39:43.540Z,4.80
2018-08-11T04:42:10.854Z,4.97
2018-08-11T04:44:38.255Z,5.63
2018-08-11T04:47:05.790Z,7.10
2018-08-11T04:49:33.115Z,6.37
2018-08-11T04:52:00.407Z,8.30
2018-08-11T04:54:27.871Z,5.40
2018-08-11T04:56:55.174Z,5.50
2018-08-11T04:59:22.487Z,11.13
2018-08-11T05:01:49.818Z,5.00
2018-08-11T05:04:17.116Z,5.37
2018-08-11T05:06:44.418Z,6.37
2018-08-11T05:09:11.708Z,4.63
2018-08-11T05:11:39.245Z,5.90
2018-08-11T05:14:06.783Z,5.53
2018-08-11T05:16:34.087Z,4.87
2018-08-11T05:19:01.711Z,6.47
2018-08-11T05:21:29.117Z,5.87
2018-08-11T05:23:56.407Z,6.80
2018-08-11T05:26:23.788Z,5.17
2018-08-11T05:28:51.038Z,6.17
2018-08-11T05:31:18.335Z,5.93
2018-08-11T05:33:45.660Z,5.03
2018-08-11T05:36:12.947Z,6.03
2018-08-11T05:38:40.253Z,6.93
2018-08-11T05:41:07.563Z,5.20
2018-08-11T05:43:34.873Z,5.93
2018-08-11T05:46:02.361Z,5.63
2018-08-11T05:48:29.666Z,6.17
2018-08-11T05:50:56.979Z,6.23
2018-08-11T05:53:24.322Z,5.13
2018-08-11T05:55:51.649Z,5.57
2018-08-11T05:58:18.951Z,5.37
2018-08-11T06:00:46.373Z,6.27
2018-08-11T06:03:13.692Z,5.27
2018-08-11T06:05:41.107Z,4.77
2018-08-11T06:08:08.419Z,5.00
2018-08-11T06:10:35.790Z,5.60
2018-08-11T06:13:03.090Z,4.67
2018-08-11T06:15:30.410Z,5.80
2018-08-11T06:17:57.708Z,4.33
2018-08-11T06:20:25.260Z,4.90
2018-08-11T06:22:52.578Z,6.30
2018-08-11T06:25:19.872Z,4.30
2018-08-11T06:27:47.437Z,4.13
2018-08-11T06:30:14.805Z,3.57
2018-08-11T06:32:42.138Z,5.07
2018-08-11T06:35:09.467Z,4.10
2018-08-11T06:37:37.114Z,3.80
2018-08-11T06:40:05.130Z,3.50
2018-08-11T06:42:32.427Z,5.63
2018-08-11T06:44:59.726Z,4.27
2018-08-11T06:47:27.303Z,5.77
2018-08-11T06:49:54.592Z,4.30
2018-08-11T06:52:22.106Z,5.83
2018-08-11T06:54:49.396Z,3.73
2018-08-11T06:57:16.694Z,4.93
2018-08-11T06:59:43.984Z,5.03
2018-08-11T07:02:11.279Z,3.67
2018-08-11T07:04:38.670Z,4.33
2018-08-11T07:07:05.994Z,3.90
2018-08-11T07:09:33.287Z,4.37
2018-08-11T07:12:00.599Z,4.27
2018-08-11T07:14:27.911Z,4.03
2018-08-11T07:16:55.236Z,6.30
2018-08-11T07:19:22.554Z,3.77
2018-08-11T07:21:49.875Z,4.93
2018-08-11T07:24:17.392Z,3.10
2018-08-11T07:26:44.720Z,3.60
2018-08-11T07:29:12.063Z,3.93
2018-08-11T07:31:39.658Z,5.87
2018-08-11T07:34:07.231Z,3.40
2018-08-11T07:36:34.628Z,3.73
2018-08-11T07:39:01.919Z,3.27
2018-08-11T07:41:29.355Z,4.13
2018-08-11T07:43:56.665Z,10.83
2018-08-11T07:46:23.975Z,3.50
2018-08-11T07:48:51.775Z,4.20
2018-08-11T07:51:19.098Z,4.10
2018-08-11T07:53:46.392Z,3.40
2018-08-11T07:56:13.751Z,3.90
2018-08-11T07:58:41.082Z,5.17
2018-08-11T08:01:08.407Z,5.67
2018-08-11T08:03:35.728Z,2.63
2018-08-11T08:06:03.087Z,3.40
2018-08-11T08:08:30.406Z,3.93
2018-08-11T08:10:57.706Z,3.77
2018-08-11T08:13:25.059Z,3.27
2018-08-11T08:15:52.367Z,3.70
2018-08-11T08:18:19.679Z,3.20
2018-08-11T08:20:46.973Z,3.63
2018-08-11T08:23:14.281Z,5.47
2018-08-11T08:25:41.593Z,3.40
2018-08-11T08:28:08.902Z,3.30
2018-08-11T08:30:36.240Z,2.57
2018-08-11T08:33:03.621Z,4.80
2018-08-11T08:35:30.947Z,4.67
2018-08-11T08:37:58.283Z,3.63
2018-08-11T08:40:25.618Z,3.57
2018-08-11T08:42:52.911Z,4.50
2018-08-11T08:45:20.236Z,3.20
2018-08-11T08:47:47.524Z,3.13
2018-08-11T08:50:14.989Z,2.37
2018-08-11T08:52:42.543Z,5.23
2018-08-11T08:55:09.884Z,3.50
2018-08-11T08:57:37.204Z,3.37
2018-08-11T09:00:04.795Z,2.50
2018-08-11T09:02:32.290Z,3.60
2018-08-11T09:04:59.681Z,3.63
2018-08-11T09:07:26.920Z,2.53
2018-08-11T09:09:54.231Z,4.47
2018-08-11T09:12:21.712Z,3.13
2018-08-11T09:14:49.059Z,2.57
2018-08-11T09:17:16.386Z,3.93
2018-08-11T09:19:43.761Z,3.00
2018-08-11T09:22:11.145Z,3.20
2018-08-11T09:24:38.508Z,4.10
2018-08-11T09:27:05.854Z,3.00
2018-08-11T09:29:33.212Z,2.80
2018-08-11T09:32:00.569Z,3.77
2018-08-11T09:34:27.879Z,3.03
2018-08-11T09:36:55.210Z,1.70
2018-08-11T09:39:22.540Z,1.50
2018-08-11T09:41:49.862Z,1.93
2018-08-11T09:44:17.163Z,3.07
2018-08-11T09:46:44.489Z,2.80
2018-08-11T09:49:11.835Z,2.57
2018-08-11T09:51:39.143Z,3.93
2018-08-11T09:54:06.463Z,1.80
2018-08-11T09:56:33.810Z,2.73
2018-08-11T09:59:01.345Z,5.03
2018-08-11T10:01:34.256Z,8.60
2018-08-11T10:04:01.567Z,2.57
2018-08-11T10:06:28.904Z,1.93
2018-08-11T10:08:56.208Z,2.40
2018-08-11T10:11:23.579Z,1.40
2018-08-11T10:13:50.923Z,2.53
2018-08-11T10:16:18.656Z,1.40
2018-08-11T10:18:45.986Z,1.70
2018-08-11T10:21:13.338Z,2.47
2018-08-11T10:23:40.691Z,3.20
2018-08-11T10:26:08.028Z,6.30
2018-08-11T10:28:35.547Z,2.10
2018-08-11T10:31:02.886Z,2.67
2018-08-11T10:33:30.197Z,2.37
2018-08-11T10:35:57.519Z,4.87
2018-08-11T10:38:24.860Z,4.03
2018-08-11T10:40:52.197Z,2.47
2018-08-11T10:43:19.487Z,2.20
2018-08-11T10:45:46.830Z,4.03
2018-08-11T10:48:14.182Z,3.50
2018-08-11T10:50:41.500Z,2.77
2018-08-11T10:53:09.075Z,1.90
2018-08-11T10:55:36.459Z,3.70
2018-08-11T10:58:03.867Z,5.07
2018-08-11T11:00:31.461Z,1.70
2018-08-11T11:02:58.820Z,1.90
2018-08-11T11:05:26.187Z,1.27
2018-08-11T11:07:53.714Z,1.30
2018-08-11T11:10:21.014Z,4.93
2018-08-11T11:12:48.351Z,1.57
2018-08-11T11:15:15.651Z,2.77
2018-08-11T11:17:43.147Z,1.83
2018-08-11T11:20:11.618Z,1.93
2018-08-11T11:22:39.170Z,1.80
2018-08-11T11:25:06.746Z,1.90
2018-08-11T11:27:34.085Z,1.60
2018-08-11T11:30:01.372Z,1.93
2018-08-11T11:35:03.128Z,1.67
2018-08-11T11:37:30.450Z,1.70
2018-08-11T11:39:57.837Z,1.60
2018-08-11T11:42:25.160Z,1.63
2018-08-11T11:44:52.500Z,1.43
2018-08-11T11:47:19.804Z,1.93
2018-08-11T11:49:47.231Z,1.50
2018-08-11T11:52:14.534Z,1.07
2018-08-11T11:54:41.908Z,0.87
2018-08-11T11:57:09.738Z,3.23
2018-08-11T11:59:37.063Z,1.40
2018-08-11T12:02:04.627Z,1.50
2018-08-11T12:04:32.043Z,2.27
2018-08-11T12:06:59.391Z,1.90
2018-08-11T12:09:26.725Z,1.00
2018-08-11T12:11:54.055Z,1.23
2018-08-11T12:14:21.466Z,0.80
2018-08-11T12:16:48.921Z,1.43
2018-08-11T12:19:16.556Z,2.03
2018-08-11T12:21:43.917Z,2.47
2018-08-11T12:24:11.275Z,1.47
2018-08-11T12:26:38.652Z,1.73
2018-08-11T12:29:06.324Z,2.33
2018-08-11T12:31:33.673Z,2.37
2018-08-11T12:34:07.861Z,2.17
2018-08-11T12:36:35.354Z,1.60
2018-08-11T12:39:05.191Z,2.00
2018-08-11T12:41:32.516Z,1.73
2018-08-11T12:44:00.086Z,2.33
2018-08-11T12:46:27.429Z,1.30
2018-08-11T12:48:54.750Z,1.30
2018-08-11T12:51:22.308Z,2.27
2018-08-11T12:53:49.830Z,2.20
2018-08-11T12:56:17.208Z,2.27
2018-08-11T12:58:44.554Z,1.00
2018-08-11T13:01:11.944Z,3.87
2018-08-11T13:03:39.243Z,1.73
2018-08-11T13:06:06.601Z,4.63
2018-08-11T13:08:34.003Z,1.97
2018-08-11T13:11:01.381Z,1.67
2018-08-11T13:13:28.966Z,2.43
2018-08-11T13:15:56.327Z,1.40
2018-08-11T13:18:23.781Z,1.87
2018-08-11T13:20:51.263Z,1.47
2018-08-11T13:23:18.852Z,3.10
2018-08-11T13:25:46.229Z,1.47
2018-08-11T13:28:13.552Z,2.37
2018-08-11T13:30:41.065Z,1.87
2018-08-11T13:33:08.404Z,1.00
2018-08-11T13:35:35.767Z,1.40
2018-08-11T13:38:03.120Z,1.17
2018-08-11T13:40:30.676Z,2.93
2018-08-11T13:42:58.085Z,1.57
2018-08-11T13:45:25.492Z,1.43
2018-08-11T13:47:52.834Z,1.57
2018-08-11T13:50:20.145Z,1.10
2018-08-11T13:52:47.664Z,2.23
2018-08-11T13:55:15.267Z,1.67
2018-08-11T13:57:42.936Z,1.00
2018-08-11T14:00:10.559Z,1.80
2018-08-11T14:02:37.962Z,1.77
2018-08-11T14:05:05.315Z,1.57
2018-08-11T14:07:32.777Z,2.30
2018-08-11T14:10:00.188Z,0.90
2018-08-11T14:12:27.646Z,1.93
2018-08-11T14:14:55.036Z,1.50
2018-08-11T14:17:22.352Z,1.93
2018-08-11T14:19:50.082Z,1.50
2018-08-11T14:22:18.208Z,1.07
2018-08-11T14:24:46.132Z,0.80
2018-08-11T14:27:13.601Z,1.93
2018-08-11T14:29:40.925Z,1.97
2018-08-11T14:32:08.273Z,1.87
2018-08-11T14:34:35.669Z,1.00
2018-08-11T14:37:03.039Z,3.00
2018-08-11T14:39:30.368Z,0.70
2018-08-11T14:41:57.838Z,1.80
2018-08-11T14:44:25.515Z,1.73
2018-08-11T14:46:52.939Z,1.30
2018-08-11T14:49:20.394Z,3.20
2018-08-11T14:51:48.153Z,3.67
2018-08-11T14:54:15.565Z,1.93
2018-08-11T14:56:42.884Z,1.23
2018-08-11T14:59:10.438Z,2.10
2018-08-11T15:01:37.759Z,3.03
2018-08-11T15:04:05.079Z,1.10
2018-08-11T15:06:32.486Z,1.00
2018-08-11T15:08:59.831Z,1.63
2018-08-11T15:11:27.227Z,2.40
2018-08-11T15:13:54.615Z,1.50
2018-08-11T15:16:22.004Z,2.33
2018-08-11T15:18:49.359Z,1.63
2018-08-11T15:21:16.656Z,3.10
2018-08-11T15:23:44.172Z,1.90
2018-08-11T15:26:11.490Z,2.20
2018-08-11T15:28:38.831Z,1.60
2018-08-11T15:31:06.407Z,1.93
2018-08-11T15:33:33.995Z,3.10
2018-08-11T15:36:01.374Z,1.80
2018-08-11T15:38:29.073Z,4.10
2018-08-11T15:40:56.372Z,2.03
2018-08-11T15:43:23.783Z,2.50
2018-08-11T15:45:51.400Z,2.50
2018-08-11T15:48:18.788Z,1.50
2018-08-11T15:50:46.104Z,2.57
2018-08-11T15:53:13.659Z,1.57
2018-08-11T15:55:40.997Z,2.33
2018-08-11T15:58:08.324Z,2.27
2018-08-11T16:00:42.457Z,2.03
2018-08-11T16:03:09.868Z,2.50
2018-08-11T16:05:37.900Z,1.03
2018-08-11T16:08:05.441Z,1.90
2018-08-11T16:10:32.753Z,1.03
2018-08-11T16:13:00.084Z,2.03
2018-08-11T16:15:27.478Z,2.17
2018-08-11T16:17:54.779Z,2.17
2018-08-11T16:20:22.120Z,2.83
2018-08-11T16:22:49.433Z,1.57
2018-08-11T16:25:16.767Z,1.47
2018-08-11T16:27:44.123Z,2.50
2018-08-11T16:30:12.506Z,2.77
2018-08-11T16:32:39.883Z,2.17
2018-08-11T16:35:07.514Z,1.70
2018-08-11T16:37:35.271Z,2.30
2018-08-11T16:40:02.618Z,1.70
2018-08-11T16:42:29.898Z,2.57
2018-08-11T16:44:57.203Z,1.90
2018-08-11T16:47:24.691Z,3.00
2018-08-11T16:49:51.987Z,2.03
2018-08-11T16:52:19.328Z,1.63
2018-08-11T16:54:46.680Z,1.47
2018-08-11T16:57:14.014Z,2.00
2018-08-11T16:59:41.394Z,1.27
2018-08-11T17:02:08.679Z,2.10
2018-08-11T17:04:36.036Z,2.37
2018-08-11T17:07:03.980Z,2.10
2018-08-11T17:09:31.313Z,3.93
2018-08-11T17:11:58.675Z,1.30
2018-08-11T17:14:26.357Z,1.23
2018-08-11T17:16:53.628Z,1.60
2018-08-11T17:19:20.961Z,2.73
2018-08-11T17:21:48.291Z,2.63
2018-08-11T17:24:15.788Z,1.53
2018-08-11T17:26:43.095Z,1.70
2018-08-11T17:29:10.437Z,2.13
2018-08-11T17:31:37.731Z,1.23
2018-08-11T17:34:05.148Z,2.90
2018-08-11T17:36:32.721Z,1.33
2018-08-11T17:39:00.056Z,1.47
2018-08-11T17:41:27.360Z,1.83
2018-08-11T17:43:55.195Z,1.40
2018-08-11T17:46:22.498Z,1.50
2018-08-11T17:48:49.781Z,1.37
2018-08-11T17:51:17.106Z,2.30
2018-08-11T17:53:44.416Z,1.67
2018-08-11T17:56:11.714Z,0.90
2018-08-11T17:58:39.059Z,2.87
2018-08-11T18:01:06.417Z,1.40
2018-08-11T18:03:33.704Z,2.27
2018-08-11T18:06:01.007Z,3.07
2018-08-11T18:08:28.484Z,2.43
2018-08-11T18:10:55.794Z,1.67
2018-08-11T18:13:23.086Z,2.87
2018-08-11T18:15:50.428Z,1.60
2018-08-11T18:18:17.730Z,2.70
2018-08-11T18:20:45.090Z,1.60
2018-08-11T18:23:12.530Z,1.93
2018-08-11T18:25:39.924Z,1.73
2018-08-11T18:28:07.215Z,1.67
2018-08-11T18:30:34.827Z,1.93
2018-08-11T18:33:02.266Z,1.83
2018-08-11T18:35:29.571Z,3.70
2018-08-11T18:37:56.918Z,1.60
2018-08-11T18:40:24.224Z,1.87
2018-08-11T18:42:51.544Z,1.73
2018-08-11T18:45:18.870Z,3.53
2018-08-11T18:47:46.195Z,2.80
2018-08-11T18:50:13.503Z,1.40
2018-08-11T18:52:40.822Z,2.13
2018-08-11T18:55:09.012Z,1.77
2018-08-11T18:57:36.639Z,2.43
2018-08-11T19:00:09.818Z,2.33
2018-08-11T19:02:37.275Z,2.53
2018-08-11T19:05:05.014Z,2.00
2018-08-11T19:07:32.343Z,1.97
2018-08-11T19:09:59.679Z,1.80
2018-08-11T19:12:27.028Z,2.00
2018-08-11T19:14:54.335Z,2.07
2018-08-11T19:17:21.674Z,1.30
2018-08-11T19:19:49.042Z,1.73
2018-08-11T19:22:16.530Z,1.80
2018-08-11T19:24:43.878Z,2.10
2018-08-11T19:27:11.219Z,1.97
2018-08-11T19:29:38.545Z,1.57
2018-08-11T19:32:06.047Z,1.40
2018-08-11T19:34:33.499Z,2.20
2018-08-11T19:37:00.811Z,2.03
2018-08-11T19:39:28.136Z,4.23
2018-08-11T19:41:55.435Z,1.90
2018-08-11T19:44:22.870Z,2.40
2018-08-11T19:46:50.187Z,2.20
2018-08-11T19:49:17.507Z,3.47
2018-08-11T19:51:44.831Z,2.67
2018-08-11T19:54:12.131Z,2.20
2018-08-11T19:56:39.439Z,2.53
2018-08-11T19:59:06.947Z,1.57
2018-08-11T20:01:34.317Z,2.30
2018-08-11T20:04:01.634Z,3.93
2018-08-11T20:06:28.961Z,3.07
2018-08-11T20:08:56.279Z,1.90
2018-08-11T20:11:23.602Z,2.00
2018-08-11T20:13:51.171Z,2.93
2018-08-11T20:16:18.520Z,2.10
2018-08-11T20:18:45.869Z,1.80
2018-08-11T20:21:13.187Z,1.80
2018-08-11T20:23:40.800Z,1.80
2018-08-11T20:26:08.165Z,2.03
2018-08-11T20:28:35.513Z,2.07
2018-08-11T20:31:02.866Z,2.70
2018-08-11T20:33:30.229Z,1.93
2018-08-11T20:35:57.544Z,1.87
2018-08-11T20:38:25.121Z,2.10
2018-08-11T20:40:52.446Z,3.20
2018-08-11T20:43:19.789Z,2.47
2018-08-11T20:45:47.169Z,3.67
2018-08-11T20:48:14.475Z,2.87
2018-08-11T20:50:41.853Z,2.70
2018-08-11T20:53:09.226Z,2.50
2018-08-11T20:55:36.573Z,2.10
2018-08-11T20:58:03.903Z,3.27
2018-08-11T21:00:31.359Z,1.80
2018-08-11T21:02:58.865Z,2.50
2018-08-11T21:05:26.175Z,2.27
2018-08-11T21:07:53.551Z,2.17
2018-08-11T21:10:20.934Z,4.27
2018-08-11T21:12:48.239Z,2.80
2018-08-11T21:15:15.598Z,2.63
2018-08-11T21:17:42.904Z,4.00
2018-08-11T21:20:11.979Z,2.10
2018-08-11T21:22:39.287Z,2.10
2018-08-11T21:25:07.527Z,1.80
2018-08-11T21:27:35.197Z,2.30
2018-08-11T21:30:02.791Z,2.17
2018-08-11T21:32:30.603Z,1.80
2018-08-11T21:34:57.926Z,1.97
2018-08-11T21:37:25.254Z,3.33
2018-08-11T21:39:52.570Z,2.23
2018-08-11T21:42:26.759Z,2.57
2018-08-11T21:44:54.081Z,1.60
2018-08-11T21:47:21.425Z,2.27
2018-08-11T21:49:48.775Z,2.03
2018-08-11T21:52:16.130Z,1.97
2018-08-11T21:54:43.609Z,2.20
2018-08-11T21:57:10.952Z,3.27
2018-08-11T21:59:38.286Z,2.30
2018-08-11T22:02:05.703Z,3.43
2018-08-11T22:04:34.334Z,2.40
2018-08-11T22:07:04.120Z,2.50
2018-08-11T22:09:31.501Z,2.20
2018-08-11T22:11:59.084Z,2.13
2018-08-11T22:14:26.449Z,2.67
2018-08-11T22:16:53.751Z,3.23
2018-08-11T22:19:21.097Z,4.10
2018-08-11T22:21:48.494Z,2.87
2018-08-11T22:24:15.829Z,2.87
2018-08-11T22:26:43.174Z,2.40
2018-08-11T22:29:10.495Z,2.67
2018-08-11T22:31:37.816Z,3.83
2018-08-11T22:34:05.186Z,2.47
2018-08-11T22:36:32.519Z,2.43
2018-08-11T22:38:59.831Z,2.70
2018-08-11T22:41:27.156Z,2.40
2018-08-11T22:43:54.515Z,3.03
2018-08-11T22:46:21.840Z,2.53
2018-08-11T22:48:49.555Z,2.67
2018-08-11T22:51:16.975Z,3.93
2018-08-11T22:53:44.282Z,4.47
2018-08-11T22:56:11.599Z,3.70
2018-08-11T22:58:38.925Z,3.37
2018-08-11T23:01:06.419Z,4.70
2018-08-11T23:03:34.082Z,6.47
2018-08-11T23:06:01.477Z,5.80
2018-08-11T23:08:28.805Z,2.87
2018-08-11T23:10:56.137Z,5.03
2018-08-11T23:13:23.480Z,3.37
2018-08-11T23:15:50.822Z,5.93
2018-08-11T23:18:18.170Z,4.30
2018-08-11T23:20:45.536Z,4.07
2018-08-11T23:23:12.882Z,3.27
2018-08-11T23:25:41.364Z,3.40
2018-08-11T23:28:08.712Z,5.03
2018-08-11T23:30:36.138Z,4.57
2018-08-11T23:33:03.768Z,3.00
2018-08-11T23:35:31.118Z,3.20
2018-08-11T23:37:58.474Z,3.70
2018-08-11T23:40:25.811Z,3.07
2018-08-11T23:42:53.160Z,3.37
2018-08-11T23:45:20.500Z,3.27
2018-08-11T23:47:47.860Z,3.80
2018-08-11T23:50:15.239Z,2.93
2018-08-11T23:52:43.426Z,3.00
2018-08-11T23:55:11.843Z,4.10
2018-08-11T23:57:39.215Z,3.93
